Time;durP1;ratioP1;P1;durP2;ratioP2;P2;SDS_P1;SDS_P2;PMS_P1;PMS_P2;Temp;Humidity;BMP_temperature;BMP_pressure;BME280_temperature;BME280_humidity;BME280_pressure;Samples;Min_cycle;Max_cycle;Signal;HPM_P1;HPM_P2
2022/10/06 00:01:21;;;;;;;7.90;1.50;;;;;;;13.28;100.00;101942.25;2615909;36;20022;-56
2022/10/06 00:03:49;;;;;;;5.75;1.40;;;;;;;13.30;100.00;101948.38;2614115;36;20045;-56
2022/10/06 00:06:18;;;;;;;7.20;1.33;;;;;;;13.37;100.00;101948.78;2615655;31;20437;-57
2022/10/06 00:08:48;;;;;;;3.00;1.00;;;;;;;13.34;100.00;101957.16;2614457;36;20030;-58
2022/10/06 00:11:18;;;;;;;4.15;1.17;;;;;;;13.34;100.00;101965.25;2614982;31;20401;-56
2022/10/06 00:13:48;;;;;;;5.45;1.10;;;;;;;13.29;100.00;101979.13;2615194;36;20396;-58
2022/10/06 00:16:21;;;;;;;5.13;1.30;;;;;;;13.30;100.00;101979.97;2614038;36;20042;-57
2022/10/06 00:18:49;;;;;;;7.22;1.48;;;;;;;13.20;100.00;101990.69;2615518;36;20539;-57
2022/10/06 00:21:18;;;;;;;5.53;1.10;;;;;;;13.18;100.00;102000.75;2615683;36;20515;-57
2022/10/06 00:23:46;;;;;;;9.63;1.70;;;;;;;13.18;100.00;101998.06;2614291;36;20039;-57
2022/10/06 00:26:16;;;;;;;10.18;1.73;;;;;;;13.19;100.00;102007.91;2615444;31;20022;-57
2022/10/06 00:28:45;;;;;;;6.13;1.27;;;;;;;13.20;100.00;102009.59;2612892;36;20034;-57
2022/10/06 00:31:18;;;;;;;6.20;1.55;;;;;;;13.14;100.00;102013.66;2614953;36;20114;-58
2022/10/06 00:33:46;;;;;;;3.97;1.20;;;;;;;13.10;100.00;102014.03;2616122;36;20408;-56
2022/10/06 00:36:14;;;;;;;4.80;0.98;;;;;;;13.22;100.00;102023.88;2616067;31;20431;-56
2022/10/06 00:38:43;;;;;;;4.72;1.60;;;;;;;13.17;100.00;102028.78;2613948;36;20030;-58
2022/10/06 00:41:13;;;;;;;7.18;1.50;;;;;;;13.13;100.00;102032.69;2614860;36;20646;-56
2022/10/06 00:43:44;;;;;;;8.10;1.23;;;;;;;13.21;100.00;102035.66;2613375;36;20424;-56
2022/10/06 00:46:21;;;;;;;5.50;1.33;;;;;;;13.14;100.00;102032.56;2615128;31;20042;-58
2022/10/06 00:48:54;;;;;;;6.63;1.35;;;;;;;13.13;100.00;102051.63;2615543;36;20030;-54
2022/10/06 00:51:23;;;;;;;8.80;1.45;;;;;;;13.23;100.00;102059.88;2614196;36;20042;-57
2022/10/06 00:53:52;;;;;;;6.05;1.52;;;;;;;13.22;100.00;102059.00;2613832;31;20046;-58
2022/10/06 00:56:20;;;;;;;9.23;1.42;;;;;;;13.16;100.00;102064.88;2615812;36;20018;-57
2022/10/06 00:58:50;;;;;;;6.50;1.50;;;;;;;13.09;100.00;102063.69;2614299;36;20439;-58
2022/10/06 01:01:21;;;;;;;5.35;1.38;;;;;;;12.94;100.00;102074.75;2615365;31;20303;-57
2022/10/06 01:03:56;;;;;;;9.13;1.50;;;;;;;12.83;100.00;102082.81;2615560;31;20025;-56
2022/10/06 01:06:24;;;;;;;7.85;1.20;;;;;;;12.89;100.00;102093.13;2615337;36;20043;-57
2022/10/06 01:08:54;;;;;;;4.07;1.10;;;;;;;12.85;100.00;102088.94;2614673;36;20061;-56
2022/10/06 01:11:22;;;;;;;6.97;1.40;;;;;;;12.78;100.00;102093.16;2615880;36;20038;-57
2022/10/06 01:13:51;;;;;;;9.85;1.23;;;;;;;12.71;100.00;102097.31;2613981;36;20439;-57
2022/10/06 01:16:26;;;;;;;6.80;1.15;;;;;;;12.66;100.00;102099.50;2614781;31;20594;-56
2022/10/06 01:18:57;;;;;;;6.13;1.58;;;;;;;12.78;100.00;102114.75;2615117;36;20030;-56
2022/10/06 01:21:31;;;;;;;9.80;1.27;;;;;;;12.76;100.00;102116.69;2615023;36;20023;-57
2022/10/06 01:24:03;;;;;;;11.13;1.27;;;;;;;12.82;100.00;102104.56;2614359;36;20034;-56
2022/10/06 01:26:33;;;;;;;9.70;1.77;;;;;;;12.72;100.00;102117.91;2616020;36;20457;-57
2022/10/06 01:29:01;;;;;;;7.30;1.33;;;;;;;12.65;100.00;102128.34;2615209;36;21240;-57
2022/10/06 01:31:30;;;;;;;6.57;1.50;;;;;;;12.49;100.00;102120.56;2614401;36;20567;-56
2022/10/06 01:33:59;;;;;;;7.45;1.35;;;;;;;12.38;100.00;102131.31;2613081;36;20554;-55
2022/10/06 01:36:27;;;;;;;5.07;1.20;;;;;;;12.34;100.00;102127.16;2615615;36;20022;-56
2022/10/06 01:39:01;;;;;;;7.32;1.38;;;;;;;12.41;100.00;102133.78;2614991;54;20022;-57
2022/10/06 01:41:32;;;;;;;9.70;1.67;;;;;;;12.49;100.00;102139.47;2616058;36;20038;-56
2022/10/06 01:44:00;;;;;;;4.72;0.88;;;;;;;12.46;100.00;102142.41;2614523;36;20030;-58
2022/10/06 01:46:30;;;;;;;4.38;1.20;;;;;;;12.35;100.00;102145.06;2613992;36;20042;-57
2022/10/06 01:48:58;;;;;;;6.50;1.70;;;;;;;12.26;100.00;102150.19;2614388;36;20559;-56
2022/10/06 01:51:27;;;;;;;4.27;1.10;;;;;;;12.17;100.00;102153.56;2615600;36;20034;-57
2022/10/06 01:53:55;;;;;;;5.13;1.42;;;;;;;12.20;100.00;102160.56;2613627;36;20487;-57
2022/10/06 01:56:26;;;;;;;7.25;1.10;;;;;;;12.14;100.00;102164.56;2614908;36;20039;-57
2022/10/06 01:58:54;;;;;;;12.00;1.50;;;;;;;12.12;100.00;102168.34;2614549;36;20038;-59
2022/10/06 02:01:23;;;;;;;7.30;1.20;;;;;;;12.18;100.00;102166.09;2615818;36;20029;-54
2022/10/06 02:03:51;;;;;;;4.90;1.30;;;;;;;12.19;100.00;102172.34;2615023;36;20048;-57
2022/10/06 02:06:19;;;;;;;5.47;1.23;;;;;;;12.19;100.00;102166.94;2615636;36;20023;-57
2022/10/06 02:08:48;;;;;;;7.30;1.50;;;;;;;12.23;100.00;102177.41;2614615;36;20035;-57
2022/10/06 02:11:17;;;;;;;15.05;3.85;;;;;;;12.14;100.00;102180.78;2615832;36;20038;-57
2022/10/06 02:13:48;;;;;;;4.95;1.27;;;;;;;12.13;100.00;102184.47;2613600;36;20035;-57
2022/10/06 02:16:16;;;;;;;11.38;1.60;;;;;;;12.09;100.00;102189.22;2615291;36;20042;-58
2022/10/06 02:18:44;;;;;;;5.95;0.70;;;;;;;12.05;100.00;102184.16;2614851;36;20039;-54
2022/10/06 02:21:17;;;;;;;5.57;1.30;;;;;;;11.91;100.00;102194.09;2615494;36;20034;-56
2022/10/06 02:23:45;;;;;;;12.35;3.28;;;;;;;11.91;100.00;102196.81;2614529;36;20041;-56
2022/10/06 02:26:16;;;;;;;5.50;1.55;;;;;;;11.83;100.00;102204.56;2614919;36;20466;-56
2022/10/06 02:28:45;;;;;;;8.82;1.42;;;;;;;11.81;100.00;102206.53;2614452;36;20567;-56
2022/10/06 02:31:17;;;;;;;3.72;1.23;;;;;;;11.71;100.00;102205.47;2615299;36;20038;-56
2022/10/06 02:33:46;;;;;;;4.68;1.10;;;;;;;11.64;100.00;102204.19;2615466;36;20557;-59
2022/10/06 02:36:17;;;;;;;2.83;1.00;;;;;;;11.59;100.00;102209.91;2614792;36;20423;-57
2022/10/06 02:38:46;;;;;;;5.65;1.15;;;;;;;11.68;100.00;102211.09;2614639;36;20034;-57
2022/10/06 02:41:14;;;;;;;8.60;1.45;;;;;;;11.66;100.00;102223.81;2615441;36;20034;-57
2022/10/06 02:43:42;;;;;;;9.15;1.15;;;;;;;11.57;100.00;102228.91;2614233;31;20030;-57
2022/10/06 02:46:13;;;;;;;4.70;1.57;;;;;;;11.53;100.00;102226.53;2614635;36;20034;-57
2022/10/06 02:48:44;;;;;;;6.70;1.48;;;;;;;11.56;100.00;102229.88;2615513;36;20038;-57
2022/10/06 02:51:14;;;;;;;5.75;1.20;;;;;;;11.53;100.00;102238.19;2615135;36;20053;-55
2022/10/06 02:53:44;;;;;;;5.43;1.58;;;;;;;11.46;100.00;102247.66;2614263;36;20046;-58
2022/10/06 02:56:15;;;;;;;5.90;1.33;;;;;;;11.45;100.00;102247.78;2615472;36;20038;-53
2022/10/06 02:58:46;;;;;;;5.32;1.30;;;;;;;11.49;100.00;102254.69;2614886;31;20177;-57
2022/10/06 03:01:16;;;;;;;8.45;1.17;;;;;;;11.40;100.00;102256.19;2615413;36;20125;-55
2022/10/06 03:03:48;;;;;;;6.85;1.60;;;;;;;11.35;100.00;102261.91;2615270;36;20050;-57
2022/10/06 03:06:24;;;;;;;5.80;1.13;;;;;;;11.29;100.00;102269.53;2613569;36;20045;-59
2022/10/06 03:08:53;;;;;;;8.02;1.27;;;;;;;11.40;100.00;102273.22;2613930;36;20034;-59
2022/10/06 03:11:23;;;;;;;8.18;1.33;;;;;;;11.31;100.00;102273.88;2616073;36;20038;-59
2022/10/06 03:13:52;;;;;;;8.73;1.20;;;;;;;11.38;100.00;102277.88;2615406;36;20035;-54
2022/10/06 03:16:22;;;;;;;;;;;;;;;11.35;100.00;102287.97;2615208;36;20023;-58
2022/10/06 03:18:55;;;;;;;4.00;1.20;;;;;;;11.37;100.00;102296.84;2615705;36;19942;-56
2022/10/06 03:21:26;;;;;;;7.75;1.50;;;;;;;11.39;100.00;102293.06;2615495;36;20062;-54
2022/10/06 03:23:56;;;;;;;5.80;1.50;;;;;;;11.25;100.00;102297.66;2615348;36;20536;-56
2022/10/06 03:26:26;;;;;;;7.78;1.40;;;;;;;11.30;100.00;102292.84;2615507;36;20072;-57
2022/10/06 03:28:55;;;;;;;5.47;0.98;;;;;;;11.28;100.00;102301.03;2614793;36;20029;-57
2022/10/06 03:31:24;;;;;;;7.27;1.23;;;;;;;11.29;100.00;102309.97;2615982;36;20026;-57
2022/10/06 03:33:56;;;;;;;;;;;;;;;11.20;100.00;102315.03;2614821;31;20303;-57
2022/10/06 03:36:26;;;;;;;6.30;1.52;;;;;;;11.20;100.00;102309.66;2615239;36;19955;-56
2022/10/06 03:38:55;;;;;;;6.68;1.23;;;;;;;11.15;100.00;102306.38;2614688;36;20031;-57
2022/10/06 03:41:25;;;;;;;7.05;1.67;;;;;;;11.14;100.00;102328.91;2616082;36;20022;-55
2022/10/06 03:43:55;;;;;;;8.45;1.38;;;;;;;11.13;100.00;102329.00;2614428;36;20022;-56
2022/10/06 03:46:38;;;;;;;9.00;1.58;;;;;;;11.19;100.00;102329.47;2615802;36;20405;-55
2022/10/06 03:49:10;;;;;;;6.40;1.20;;;;;;;11.25;100.00;102335.41;2616852;36;20030;-55
2022/10/06 03:51:40;;;;;;;12.05;1.25;;;;;;;11.15;100.00;102340.56;2617084;36;20050;-56
2022/10/06 03:54:09;;;;;;;6.78;0.95;;;;;;;11.14;100.00;102345.06;2614932;36;20786;-55
2022/10/06 03:56:40;;;;;;;3.95;1.08;;;;;;;11.19;100.00;102351.03;2616220;36;20438;-54
2022/10/06 03:59:09;;;;;;;9.35;1.40;;;;;;;11.15;100.00;102354.91;2614378;36;20022;-55
2022/10/06 04:01:40;;;;;;;5.95;1.45;;;;;;;11.11;100.00;102356.06;2616217;36;20034;-57
2022/10/06 04:04:12;;;;;;;8.88;1.23;;;;;;;11.17;100.00;102360.19;2615345;36;21080;-58
2022/10/06 04:06:42;;;;;;;8.52;1.55;;;;;;;11.24;100.00;102372.28;2615802;36;20030;-57
2022/10/06 04:09:13;;;;;;;9.77;1.58;;;;;;;11.23;100.00;102375.94;2615115;36;20029;-56
2022/10/06 04:11:43;;;;;;;8.07;1.80;;;;;;;11.20;100.00;102373.44;2614959;31;20034;-53
2022/10/06 04:14:12;;;;;;;;;;;;;;;11.14;100.00;102373.88;2614357;36;20038;-56
2022/10/06 04:16:41;;;;;;;;;;;;;;;11.18;100.00;102373.56;2616016;36;19946;-53
2022/10/06 04:19:14;;;;;;;7.38;1.23;;;;;;;11.03;100.00;102379.97;2615555;36;19961;-56
2022/10/06 04:21:45;;;;;;;5.07;1.45;;;;;;;11.01;100.00;102380.09;2615551;36;20039;-56
2022/10/06 04:24:15;;;;;;;5.88;1.13;;;;;;;11.02;100.00;102386.31;2613180;31;20038;-56
2022/10/06 04:26:47;;;;;;;8.15;1.30;;;;;;;11.01;100.00;102403.44;2616276;31;20053;-57
2022/10/06 04:29:16;;;;;;;7.10;1.20;;;;;;;10.99;100.00;102397.31;2613646;36;20023;-58
2022/10/06 04:31:44;;;;;;;10.60;1.70;;;;;;;10.92;100.00;102404.06;2615749;31;20566;-56
2022/10/06 04:34:15;;;;;;;8.52;1.48;;;;;;;10.90;100.00;102409.53;2615381;36;20038;-57
2022/10/06 04:36:45;;;;;;;4.15;1.20;;;;;;;10.92;100.00;102412.13;2615754;31;20041;-55
2022/10/06 04:39:14;;;;;;;10.90;2.33;;;;;;;10.93;100.00;102416.56;2613713;36;20048;-55
2022/10/06 04:41:46;;;;;;;8.70;1.27;;;;;;;10.88;100.00;102414.19;2614554;36;20045;-56
2022/10/06 04:44:14;;;;;;;15.07;1.85;;;;;;;10.81;100.00;102427.16;2614540;31;20054;-56
2022/10/06 04:46:42;;;;;;;5.20;1.40;;;;;;;10.81;100.00;102437.09;2614946;36;20030;-56
2022/10/06 04:49:11;;;;;;;9.88;1.35;;;;;;;10.77;100.00;102441.78;2616086;36;20034;-53
2022/10/06 04:51:42;;;;;;;4.93;1.43;;;;;;;10.76;100.00;102441.88;2615498;36;20038;-56
2022/10/06 04:54:10;;;;;;;7.43;1.15;;;;;;;10.72;100.00;102443.03;2614223;36;20035;-56
2022/10/06 04:56:38;;;;;;;6.93;1.20;;;;;;;10.71;100.00;102439.50;2615460;31;20447;-57
2022/10/06 04:59:06;;;;;;;9.52;1.25;;;;;;;10.81;100.00;102458.63;2613867;36;20034;-56
2022/10/06 05:01:36;;;;;;;11.30;1.40;;;;;;;10.75;100.00;102457.19;2615322;36;20039;-57
2022/10/06 05:04:06;;;;;;;6.55;1.17;;;;;;;10.71;100.00;102458.34;2611038;31;20543;-57
2022/10/06 05:06:37;;;;;;;5.32;1.38;;;;;;;10.71;100.00;102469.13;2614253;36;20041;-57
2022/10/06 05:09:10;;;;;;;8.43;1.77;;;;;;;10.68;100.00;102469.31;2614213;36;20559;-56
2022/10/06 05:11:39;;;;;;;6.25;1.10;;;;;;;10.67;100.00;102467.56;2614319;36;20546;-56
2022/10/06 05:14:08;;;;;;;8.43;1.60;;;;;;;10.63;100.00;102474.09;2613329;36;20166;-56
2022/10/06 05:16:37;;;;;;;7.07;1.40;;;;;;;10.76;100.00;102467.00;2615459;36;20038;-54
2022/10/06 05:19:06;;;;;;;5.65;1.55;;;;;;;10.64;100.00;102473.16;2614810;36;20122;-57
2022/10/06 05:21:35;;;;;;;6.65;1.45;;;;;;;10.60;100.00;102490.47;2611993;36;20060;-57
2022/10/06 05:24:04;;;;;;;4.43;1.10;;;;;;;10.70;100.00;102499.69;2614252;31;20034;-56
2022/10/06 05:26:37;;;;;;;7.05;1.67;;;;;;;10.59;100.00;102486.91;2611294;36;20022;-57
2022/10/06 05:29:06;;;;;;;9.38;2.05;;;;;;;10.55;100.00;102497.97;2612418;36;20116;-56
2022/10/06 05:31:37;;;;;;;8.85;1.90;;;;;;;10.49;100.00;102499.22;2614126;36;20061;-56
2022/10/06 05:34:06;;;;;;;7.82;1.48;;;;;;;10.43;100.00;102503.16;2614290;36;20034;-55
2022/10/06 05:36:35;;;;;;;6.82;1.70;;;;;;;10.39;100.00;102506.13;2615522;36;20046;-54
2022/10/06 05:39:04;;;;;;;4.20;1.20;;;;;;;10.45;100.00;102500.38;2614744;36;20464;-56
2022/10/06 05:41:36;;;;;;;;;;;;;;;10.37;100.00;102508.06;2616202;36;20453;-57
2022/10/06 05:44:05;;;;;;;6.28;1.70;;;;;;;10.39;100.00;102506.13;2614977;31;20378;-56
2022/10/06 05:46:37;;;;;;;5.20;1.27;;;;;;;10.40;100.00;102514.13;2614491;36;20122;-57
2022/10/06 05:49:09;;;;;;;8.75;1.50;;;;;;;10.33;100.00;102515.41;2616047;36;20029;-55
2022/10/06 05:51:38;;;;;;;8.10;1.80;;;;;;;10.29;100.00;102527.31;2615666;36;20022;-57
2022/10/06 05:54:07;;;;;;;14.63;1.95;;;;;;;10.29;100.00;102527.31;2613977;36;20022;-56
2022/10/06 05:56:39;;;;;;;4.85;1.40;;;;;;;10.25;100.00;102533.88;2614545;36;20023;-55
2022/10/06 05:59:08;;;;;;;6.57;1.30;;;;;;;10.30;100.00;102531.75;2614096;36;20042;-54
2022/10/06 06:01:39;;;;;;;5.97;1.38;;;;;;;10.26;100.00;102543.66;2615176;31;20026;-58
2022/10/06 06:04:09;;;;;;;8.90;2.20;;;;;;;10.28;100.00;102542.59;2615580;36;20065;-58
2022/10/06 06:06:38;;;;;;;7.28;1.80;;;;;;;10.29;100.00;102543.47;2615894;36;20042;-54
2022/10/06 06:09:09;;;;;;;7.38;1.30;;;;;;;10.26;100.00;102549.03;2615279;36;20118;-58
2022/10/06 06:11:42;;;;;;;11.20;1.98;;;;;;;10.27;100.00;102553.47;2615618;36;20041;-55
2022/10/06 06:14:12;;;;;;;13.82;2.00;;;;;;;10.34;100.00;102557.56;2614925;36;20042;-54
2022/10/06 06:16:39;;;;;;;8.35;2.03;;;;;;;10.38;100.00;102564.50;2614979;36;20035;-56
2022/10/06 06:19:08;;;;;;;12.35;1.77;;;;;;;10.40;100.00;102572.47;2615271;31;20042;-52
2022/10/06 06:21:37;;;;;;;;;;;;;;;10.42;100.00;102575.94;2615622;36;20535;-56
2022/10/06 06:24:06;;;;;;;5.45;1.70;;;;;;;10.51;100.00;102573.56;2614624;36;20430;-56
2022/10/06 06:26:35;;;;;;;;;;;;;;;10.60;100.00;102585.59;2614182;36;20049;-57
2022/10/06 06:29:07;;;;;;;9.55;1.77;;;;;;;10.59;100.00;102578.47;2614714;31;19947;-56
2022/10/06 06:31:37;;;;;;;10.50;2.38;;;;;;;10.58;100.00;102586.63;2615297;36;20034;-58
2022/10/06 06:34:07;;;;;;;11.05;2.10;;;;;;;10.71;100.00;102587.63;2612598;36;20038;-58
2022/10/06 06:36:39;;;;;;;7.60;1.95;;;;;;;10.79;100.00;102593.41;2613628;36;20057;-57
2022/10/06 06:39:10;;;;;;;9.10;2.22;;;;;;;10.89;100.00;102596.38;2614864;36;20118;-55
2022/10/06 06:41:41;;;;;;;6.18;1.83;;;;;;;10.89;100.00;102603.59;2614525;31;20458;-57
2022/10/06 06:44:12;;;;;;;9.93;1.90;;;;;;;10.93;100.00;102602.44;2613551;36;20039;-57
2022/10/06 06:46:43;;;;;;;8.73;2.20;;;;;;;10.93;100.00;102603.31;2616417;36;20506;-55
2022/10/06 06:49:12;;;;;;;8.05;1.90;;;;;;;10.96;100.00;102604.94;2615382;36;20022;-59
2022/10/06 06:51:42;;;;;;;10.63;1.90;;;;;;;11.02;100.00;102601.88;2615915;36;20038;-57
2022/10/06 06:54:12;;;;;;;5.50;1.38;;;;;;;11.08;100.00;102600.63;2614714;36;20590;-57
2022/10/06 06:56:41;;;;;;;6.55;1.60;;;;;;;11.08;100.00;102611.41;2615253;36;20022;-57
2022/10/06 06:59:13;;;;;;;9.73;1.60;;;;;;;11.04;100.00;102614.28;2616281;36;20511;-57
2022/10/06 07:01:45;;;;;;;9.05;1.75;;;;;;;11.09;100.00;102622.09;2616274;36;20034;-58
2022/10/06 07:04:15;;;;;;;3.53;1.40;;;;;;;11.25;100.00;102629.19;2616440;31;20042;-54
2022/10/06 07:06:55;;;;;;;8.80;1.63;;;;;;;11.21;100.00;102624.00;2614939;36;20053;-55
2022/10/06 07:09:24;;;;;;;10.57;2.00;;;;;;;11.32;100.00;102630.53;2615925;31;20029;-57
2022/10/06 07:11:53;;;;;;;6.75;1.88;;;;;;;11.42;100.00;102636.22;2616443;31;20041;-57
2022/10/06 07:14:24;;;;;;;9.80;2.08;;;;;;;11.41;100.00;102638.06;2615580;36;20444;-57
2022/10/06 07:25:10;;;;;;;10.27;2.28;;;;;;;11.80;100.00;102652.63;2616052;36;20563;-57
2022/10/06 07:27:42;;;;;;;8.30;1.55;;;;;;;11.81;100.00;102659.75;2615157;36;20034;-53
2022/10/06 07:30:17;;;;;;;9.90;1.50;;;;;;;11.91;100.00;102666.28;2614527;36;20072;-55
2022/10/06 07:32:46;;;;;;;8.80;2.10;;;;;;;11.91;100.00;102660.88;2615264;36;20034;-53
2022/10/06 07:35:15;;;;;;;3.75;1.63;;;;;;;12.13;100.00;102673.00;2616001;36;20034;-58
2022/10/06 07:37:44;;;;;;;12.32;1.60;;;;;;;12.26;100.00;102682.00;2615581;36;20034;-54
2022/10/06 07:40:13;;;;;;;12.10;2.03;;;;;;;12.27;100.00;102681.03;2615199;36;20512;-57
2022/10/06 07:42:51;;;;;;;;;;;;;;;12.35;100.00;102685.03;2616107;36;20039;-56
2022/10/06 07:48:05;;;;;;;6.82;1.63;;;;;;;12.54;100.00;102696.34;2616075;36;20046;-57
2022/10/06 07:50:36;;;;;;;6.63;1.45;;;;;;;12.57;100.00;102704.25;2615382;36;20046;-55
2022/10/06 07:53:07;;;;;;;5.00;1.50;;;;;;;12.64;100.00;102707.38;2614718;36;20528;-56
2022/10/06 07:55:38;;;;;;;10.27;2.10;;;;;;;12.68;100.00;102700.81;2614352;36;20023;-56
2022/10/06 07:58:08;;;;;;;5.40;1.33;;;;;;;12.86;100.00;102701.38;2614672;36;20041;-55
2022/10/06 08:00:39;;;;;;;10.25;2.20;;;;;;;12.93;100.00;102705.41;2615998;36;20459;-55
2022/10/06 08:03:07;;;;;;;10.10;2.13;;;;;;;13.03;100.00;102715.56;2615602;36;20034;-57
2022/10/06 08:05:36;;;;;;;6.97;1.57;;;;;;;12.97;100.00;102709.63;2615264;36;20038;-54
2022/10/06 08:08:05;;;;;;;11.32;2.03;;;;;;;13.19;100.00;102708.13;2615364;31;20026;-56
2022/10/06 08:10:33;;;;;;;10.53;2.37;;;;;;;13.29;100.00;102719.16;2615184;36;20035;-56
2022/10/06 08:13:03;;;;;;;8.35;1.67;;;;;;;13.25;100.00;102723.03;2615182;31;20038;-57
2022/10/06 08:15:32;;;;;;;6.57;1.52;;;;;;;13.29;100.00;102714.63;2615277;36;20399;-54
2022/10/06 08:18:04;;;;;;;10.03;2.03;;;;;;;13.48;100.00;102733.13;2614705;36;20522;-56
2022/10/06 08:20:32;;;;;;;6.35;1.45;;;;;;;13.69;100.00;102729.00;2614839;36;20050;-57
2022/10/06 08:23:00;;;;;;;10.83;2.13;;;;;;;13.70;100.00;102730.72;2614636;36;20034;-56
2022/10/06 08:25:29;;;;;;;6.75;1.55;;;;;;;13.77;100.00;102737.44;2614920;36;20069;-55
2022/10/06 08:27:57;;;;;;;8.52;1.50;;;;;;;13.72;100.00;102747.72;2616346;36;20030;-52
2022/10/06 08:30:26;;;;;;;6.47;1.63;;;;;;;13.83;100.00;102750.53;2614997;31;20034;-57
2022/10/06 08:32:54;;;;;;;10.15;1.83;;;;;;;14.02;100.00;102745.47;2615826;36;20022;-54
2022/10/06 08:35:25;;;;;;;5.60;1.43;;;;;;;13.93;100.00;102746.16;2614429;36;20035;-57
2022/10/06 08:37:54;;;;;;;8.82;1.45;;;;;;;14.01;100.00;102753.72;2615703;36;20565;-57
2022/10/06 08:40:23;;;;;;;5.47;2.03;;;;;;;14.14;100.00;102754.53;2611775;36;20041;-55
2022/10/06 08:42:54;;;;;;;6.22;1.90;;;;;;;14.28;100.00;102752.66;2615411;36;20037;-53
2022/10/06 08:45:25;;;;;;;8.63;1.80;;;;;;;14.33;100.00;102762.19;2614384;36;20023;-56
2022/10/06 08:48:01;;;;;;;8.68;2.20;;;;;;;14.42;100.00;102763.34;2614841;36;20137;-56
2022/10/06 08:50:38;;;;;;;14.32;1.92;;;;;;;14.51;100.00;102753.66;2615543;36;20038;-56
2022/10/06 08:53:13;;;;;;;6.00;1.63;;;;;;;14.57;100.00;102766.72;2614648;36;20069;-58
2022/10/06 08:55:48;;;;;;;6.47;1.55;;;;;;;14.67;100.00;102773.22;2614784;36;20065;-56
2022/10/06 08:58:29;;;;;;;7.03;1.48;;;;;;;14.50;100.00;102776.31;2615760;31;20038;-54
2022/10/06 09:01:01;;;;;;;5.45;1.55;;;;;;;14.57;100.00;102783.00;2615269;36;20042;-56
2022/10/06 09:03:31;;;;;;;8.00;1.60;;;;;;;14.71;100.00;102785.56;2612746;31;20098;-52
2022/10/06 09:06:14;;;;;;;8.80;1.42;;;;;;;14.81;100.00;102785.75;2614002;31;20511;-53
2022/10/06 09:08:52;;;;;;;9.25;1.85;;;;;;;14.91;100.00;102795.88;2614226;31;20554;-52
2022/10/06 09:11:41;;;;;;;9.05;2.20;;;;;;;15.13;100.00;102785.09;2615782;36;20125;-53
2022/10/06 09:14:16;;;;;;;10.15;1.38;;;;;;;15.05;100.00;102788.41;2615349;36;20034;-54
2022/10/06 09:16:52;;;;;;;6.70;1.20;;;;;;;15.10;100.00;102792.63;2616146;31;20034;-55
2022/10/06 09:19:25;;;;;;;6.20;1.50;;;;;;;15.10;100.00;102796.19;2615309;36;20034;-58
2022/10/06 09:21:58;;;;;;;5.00;1.45;;;;;;;15.36;100.00;102801.44;2616497;36;20030;-55
2022/10/06 09:24:37;;;;;;;8.45;1.60;;;;;;;15.33;100.00;102805.25;2614762;36;20546;-56
2022/10/06 09:27:18;;;;;;;5.00;1.70;;;;;;;15.37;100.00;102804.03;2615602;31;20030;-56
2022/10/06 09:29:47;;;;;;;7.72;1.42;;;;;;;15.42;100.00;102807.25;2613627;36;20138;-56
2022/10/06 09:32:16;;;;;;;8.73;1.48;;;;;;;15.47;100.00;102798.72;2613579;36;20022;-55
2022/10/06 09:34:48;;;;;;;7.93;1.63;;;;;;;15.47;100.00;102806.03;2615646;36;20034;-57
2022/10/06 09:37:19;;;;;;;8.45;1.23;;;;;;;15.54;100.00;102793.69;2615053;36;20038;-54
2022/10/06 09:39:49;;;;;;;12.30;1.20;;;;;;;15.70;100.00;102799.63;2614657;36;20027;-53
2022/10/06 09:42:22;;;;;;;6.38;1.35;;;;;;;15.77;100.00;102800.88;2614870;36;20038;-56
2022/10/06 09:45:24;;;;;;;5.13;1.27;;;;;;;16.02;100.00;102809.81;2614216;36;20034;-55
2022/10/06 09:47:53;;;;;;;4.15;1.17;;;;;;;15.86;100.00;102798.44;2615003;36;20554;-54
2022/10/06 09:50:24;;;;;;;6.78;1.00;;;;;;;15.98;100.00;102802.03;2614323;36;20031;-55
2022/10/06 09:53:15;;;;;;;5.57;1.10;;;;;;;15.91;100.00;102807.06;2614434;36;20035;-54
2022/10/06 09:55:50;;;;;;;15.85;1.92;;;;;;;16.07;100.00;102815.72;2615521;36;20038;-54
2022/10/06 09:58:22;;;;;;;4.50;1.25;;;;;;;15.98;100.00;102810.19;2614173;36;20050;-54
2022/10/06 10:00:56;;;;;;;5.25;1.35;;;;;;;16.24;100.00;102819.78;2612075;36;20042;-55
2022/10/06 10:03:29;;;;;;;4.53;1.00;;;;;;;16.11;100.00;102814.47;2614291;36;20065;-54
2022/10/06 10:06:01;;;;;;;4.72;1.33;;;;;;;16.14;100.00;102816.09;2615189;36;20598;-55
2022/10/06 10:08:32;;;;;;;5.25;1.33;;;;;;;16.28;100.00;102814.94;2614645;36;21314;-54
2022/10/06 10:14:00;;;;;;;11.02;1.40;;;;;;;16.16;100.00;102816.81;2614299;36;20042;-53
2022/10/06 10:16:33;;;;;;;3.97;0.95;;;;;;;16.20;100.00;102812.00;2614920;31;20546;-57
2022/10/06 10:19:03;;;;;;;7.00;1.30;;;;;;;16.43;100.00;102816.41;2614095;31;20109;-54
2022/10/06 10:21:35;;;;;;;7.90;1.33;;;;;;;16.49;100.00;102825.03;2614726;36;20060;-53
2022/10/06 10:24:17;;;;;;;4.53;0.90;;;;;;;16.39;100.00;102828.53;2613471;36;20063;-54
2022/10/06 10:26:52;;;;;;;3.17;1.33;;;;;;;16.11;100.00;102838.94;2614761;36;20027;-56
2022/10/06 10:29:40;;;;;;;9.10;1.25;;;;;;;16.15;100.00;102841.41;2612919;36;20536;-53
2022/10/06 10:32:17;;;;;;;6.90;1.48;;;;;;;15.88;100.00;102845.34;2615665;31;20527;-53
2022/10/06 10:35:04;;;;;;;3.83;1.00;;;;;;;15.99;100.00;102836.31;2613789;36;20029;-53
2022/10/06 10:37:39;;;;;;;7.97;1.10;;;;;;;16.08;100.00;102833.75;2614431;36;20027;-55
2022/10/06 10:40:22;;;;;;;7.60;1.50;;;;;;;16.20;100.00;102836.47;2612818;31;20034;-56
2022/10/06 10:43:02;;;;;;;4.55;1.05;;;;;;;16.39;100.00;102838.53;2615373;36;20033;-56
2022/10/06 10:45:34;;;;;;;5.47;1.42;;;;;;;16.42;100.00;102825.56;2608183;36;20043;-53
2022/10/06 10:48:07;;;;;;;5.00;1.20;;;;;;;16.59;100.00;102829.59;2607463;36;20031;-58
2022/10/06 10:50:45;;;;;;;4.57;0.80;;;;;;;16.70;100.00;102833.28;2613941;36;20042;-55
2022/10/06 10:53:22;;;;;;;5.68;1.08;;;;;;;16.55;100.00;102838.13;2595565;36;20523;-59
2022/10/06 10:55:55;;;;;;;4.82;1.00;;;;;;;16.84;100.00;102840.28;2614127;36;20034;-53
2022/10/06 10:58:29;;;;;;;5.45;1.00;;;;;;;16.93;100.00;102836.81;2614200;36;20035;-56
2022/10/06 11:01:04;;;;;;;2.45;0.85;;;;;;;16.89;100.00;102840.81;2613914;36;20049;-56
2022/10/06 11:03:32;;;;;;;7.95;1.27;;;;;;;16.82;100.00;102833.09;2615164;36;20023;-55
2022/10/06 11:06:19;;;;;;;6.78;1.10;;;;;;;16.78;100.00;102850.69;2614164;36;20038;-50
2022/10/06 11:08:57;;;;;;;7.72;0.85;;;;;;;16.87;100.00;102853.59;2612450;31;20038;-51
2022/10/06 11:11:42;;;;;;;10.40;1.25;;;;;;;16.84;100.00;102853.88;2612186;36;20027;-54
2022/10/06 11:14:19;;;;;;;4.35;0.80;;;;;;;17.11;100.00;102857.03;2614161;36;20039;-53
2022/10/06 11:16:59;;;;;;;6.13;1.02;;;;;;;16.96;100.00;102859.19;2614484;36;20027;-56
2022/10/06 11:19:44;;;;;;;4.00;1.08;;;;;;;17.21;100.00;102857.09;2615142;36;20170;-55
2022/10/06 11:22:18;;;;;;;4.80;1.05;;;;;;;17.10;100.00;102855.28;2613700;36;20552;-52
2022/10/06 11:24:56;;;;;;;3.95;1.35;;;;;;;17.02;100.00;102851.47;2615220;36;20542;-55
2022/10/06 11:27:43;;;;;;;4.53;1.00;;;;;;;17.32;100.00;102856.19;2614875;31;20543;-55
2022/10/06 11:30:18;;;;;;;3.53;0.80;;;;;;;17.48;100.00;102866.63;2612956;36;20038;-57
2022/10/06 11:33:00;;;;;;;6.60;1.20;;;;;;;17.17;100.00;102861.94;2615925;36;20030;-52
2022/10/06 11:35:35;;;;;;;6.97;0.85;;;;;;;17.33;100.00;102857.91;2616172;36;20061;-54
2022/10/06 11:38:09;;;;;;;7.88;1.10;;;;;;;17.46;100.00;102847.69;2613896;36;20053;-54
2022/10/06 11:40:57;;;;;;;2.53;0.73;;;;;;;17.90;100.00;102854.84;2615641;36;20046;-56
2022/10/06 11:43:37;;;;;;;8.15;1.30;;;;;;;17.91;100.00;102851.13;2616158;36;20034;-57
2022/10/06 11:46:16;;;;;;;3.80;0.88;;;;;;;17.94;100.00;102853.59;2615945;36;20038;-56
2022/10/06 11:48:45;;;;;;;3.63;0.77;;;;;;;17.79;100.00;102851.19;2616462;31;20038;-53
2022/10/06 11:51:30;;;;;;;5.57;1.15;;;;;;;18.04;100.00;102846.31;2613430;36;20035;-54